Pagina principale
METAR-TAF:

METAR-TAF

Aeroporti :

Natal, Rio Grande do Norte, Brasile

latitudine: 05-46-05S, longitudine: 035-22-34W, altezza: 88 m

Osservazione

Il bollettino è stato emesso 22 minuti fa, alle 02:00 UTC
Vento 5 kt da sud/sud-ovest, variando fra sud e ovest/sud-ovest
Temperature 24°C
Umidità 83%
Pressione 1017 hPa
Visibilità 10 km o più
Nubi sparse ad un'altezza di 2100 ft
Nubi sparse ad un'altezza di 7000 ft

METAR: SBSG 160200Z 21005KT 180V240 9999 SCT021 SCT070 24/21 Q1017

Ora: 23:22 (02:22 UTC)

Previsione

Il bollettino è stato emesso 4 ore e 22 minuti fa, alle 22:00 UTC
Previsione valida dal 16 alle 00 UTC al 16 alle 24 UTC
Vento 5 kt da sud/sud-ovest
Visibilità 10 km o più
Nubi sparse ad un'altezza di 2000 ft
Evoluzione graduale
dal 16 alle 11 UTC al 16 alle 12 UTC
Vento 13 kt da sud/sud-est

TAF: SBSG 152200Z 1600/1624 21005KT 9999 SCT020 TN21/1608Z TX30/1616Z BECMG 1611/1612 15013KT RMK PCH

Osservazioni e previsioni meteorologiche di più di 4000 aeroporti (messaggi METAR e TAF).

Le stazioni disponibili sono rappresentate dai dischi gialli e rossi sulla carta.

Puntare il mouse per vedere il nome della stazione.

Clicca sopra per visualizzare le osservazioni e previsioni meteorologiche.

Per cambiare la mappa : fare clic sui pulsanti verdi con una croce nera per ingrandire, il pulsante verde con un trattino per diminuire, o sulla freccia verde per le mappe adiacenti.


METAR-TAF: